Latest Coastal Weather Observations for Hamilton Island

IDQ60701

Issued at 7:51 pm EST Thursday 17 August 2017 (issued every 10 minutes, with the page automatically refreshed every 10 minutes)

About coastal observations | Map of coastal stations | Coastal observations for QLD | Marine services | Other Formats
Station Details ID: 033106 Name: HAMILTON ISLAND AIRPORT Lat: -20.37 Lon: 148.95 Height: 58.66 m
Data from the previous 72 hours. | See also: Recent months at Hamilton Island
Date/Time
EST
Temp
°C
Wind Pressure Rain since
9am
mm
Weather Cloud Vis
km
Sea
Height
m
Swell
Dir  Spd
kts
Gust
kts
hPa Trend Height
m
Period
s
Dir
17/07:30pm 22.3 NNW 16 19 1014.9 - 0.2 - - 10 - - - -
17/07:00pm 22.4 NNW 17 20 1014.4 - 0.2 - - 10 - - - -
17/06:30pm 22.5 NNW 17 19 1014.2 - 0.2 - - 10 - - - -
17/06:00pm 22.8 NNW 14 18 1014.1 - 0.2 - - 10 - - - -
17/05:30pm 23.3 NNW 16 19 1013.8 - 0.2 - - 10 - - - -
17/05:00pm 23.8 NNW 16 18 1013.6 - 0.2 - - 10 - - - -
17/04:30pm 24.2 NNW 16 19 1013.5 - 0.2 - - 10 - - - -
17/04:00pm 24.4 NNW 16 19 1013.3 - 0.2 - - 10 - - - -
17/03:30pm 25.2 NNW 14 17 1013.3 - 0.2 - - 10 - - - -
17/03:00pm 24.8 NW 15 20 1013.3 - 0.2 - Mostly clear 10 - - - -
17/02:30pm 25.0 NW 16 18 1013.5 - 0.2 - Partly cloudy 10 - - - -
17/02:00pm 24.6 NW 17 21 1013.8 - 0.2 - Partly cloudy 10 - - - -
17/01:30pm 25.4 NW 15 19 1014.1 - 0.2 - - 10 - - - -
17/01:00pm 25.1 NW 16 20 1014.4 - 0.2 - Partly cloudy 10 - - - -
17/12:30pm 24.8 NW 14 18 1015.0 - 0.2 - Cloudy 10 - - - -
17/12:00pm 25.0 NW 13 16 1015.4 - 0.2 - Mostly cloudy 10 - - - -
17/11:30am 24.7 NW 12 14 1015.9 - 0.2 - Cloudy 10 - - - -
17/11:00am 24.1 NW 9 11 1016.4 - 0.2 - Partly cloudy 10 - - - -
17/10:30am 24.9 NNW 7 10 1016.8 - 0.2 - Partly cloudy 10 - - - -
17/10:00am 23.9 NNW 7 8 1017.0 - 0.0 - Cloudy 10 - - - -
17/09:30am 23.3 NNW 5 6 1017.0 - 0.0 - Cloudy 10 - - - -
17/09:00am 22.4 NW 5 7 1016.9 - 0.0 - Partly cloudy 10 - - - -
17/08:30am 21.6 NW 4 4 1016.7 - 0.0 - Partly cloudy 10 - - - -
17/08:00am 21.3 NNW 3 4 1016.5 - 0.0 - Partly cloudy 10 - - - -
17/07:30am 20.1 NNW 4 6 1016.4 - 0.0 - Partly cloudy 10 - - - -
17/07:00am 19.9 NW 3 4 1016.2 - 0.0 - Partly cloudy 10 - - - -
17/06:30am 19.7 NW 3 4 1016.0 - 0.0 - Partly cloudy 10 - - - -
17/06:00am 19.5 CALM 0 4 1015.6 - 0.0 - - 10 - - - -
17/05:30am 19.6 CALM 0 0 1015.4 - 0.0 - - 10 - - - -
17/05:00am 19.7 CALM 0 0 1015.3 - 0.0 - - 10 - - - -
17/04:30am 19.7 CALM 0 0 1015.1 - 0.0 - - 10 - - - -
17/04:00am 19.8 NW 2 3 1015.0 - 0.0 - - 10 - - - -
17/03:30am 19.9 WNW 3 3 1015.1 - 0.0 - - 10 - - - -
17/03:00am 20.0 W 3 3 1015.1 - 0.0 - - 10 - - - -
17/02:30am 20.2 WNW 3 3 1015.3 - 0.0 - - 10 - - - -
17/02:00am 20.0 WNW 3 4 1015.5 - 0.0 - - 10 - - - -
17/01:30am 20.2 NW 5 5 1015.7 - 0.0 - - 10 - - - -
17/01:00am 20.5 NNW 4 4 1015.7 - 0.0 - - 10 - - - -
17/12:30am 20.7 NW 3 4 1016.0 - 0.0 - - 10 - - - -
17/12:00am 20.5 W 3 4 1016.3 - 0.0 - - 10 - - - -
 
Date/Time
EST
Temp
°C
Wind Pressure Rain since
9am
mm
Weather Cloud Vis
km
Sea
Height
m
Swell
Dir  Spd
kts
Gust
kts
hPa Trend Height
m
Period
s
Dir
16/11:30pm 20.9 N 4 5 1016.4 - 0.0 - - 10 - - - -
16/11:00pm 20.9 N 4 5 1016.4 - 0.0 - - 10 - - - -
16/10:30pm 21.0 N 4 5 1016.6 - 0.0 - - 10 - - - -
16/10:00pm 21.2 NNE 5 6 1016.6 - 0.0 - - 10 - - - -
16/09:30pm 21.5 NNE 5 5 1016.6 - 0.0 - - 10 - - - -
16/09:00pm 21.5 NNE 4 4 1016.5 - 0.0 - - 10 - - - -
16/08:30pm 21.8 N 5 5 1016.5 - 0.0 - - 10 - - - -
16/08:00pm 21.8 NNE 5 6 1016.2 - 0.0 - - 10 - - - -
16/07:30pm 21.8 NNE 4 5 1015.8 - 0.0 - - 10 - - - -
16/07:00pm 21.9 NE 6 9 1015.2 - 0.0 - - 10 - - - -
16/06:30pm 22.0 NE 8 10 1014.8 - 0.0 - - 10 - - - -
16/06:00pm 22.4 NE 10 13 1014.6 - 0.0 - - 10 - - - -
16/05:30pm 22.8 NE 9 11 1014.5 - 0.0 - - 10 - - - -
16/05:00pm 22.7 E 10 13 1014.4 - 0.0 - - 10 - - - -
16/04:30pm 22.7 E 13 15 1014.2 - 0.0 - - 10 - - - -
16/04:00pm 22.9 E 13 16 1014.1 - 0.0 - - 10 - - - -
16/03:30pm 22.8 ESE 11 13 1014.2 - 0.0 - Partly cloudy 10 - - - -
16/03:00pm 23.4 ESE 11 13 1014.2 - 0.0 - Mostly clear 10 - - - -
16/02:30pm 23.6 SE 8 10 1014.6 - 0.0 - Partly cloudy 10 - - - -
16/02:00pm 22.9 SE 7 8 1015.1 - 0.0 - Partly cloudy 10 - - - -
16/01:30pm 23.8 SE 8 9 1015.5 - 0.0 - Partly cloudy 10 - - - -
16/01:00pm 24.0 SSE 7 9 1015.9 - 0.0 - Partly cloudy 10 - - - -
16/12:30pm 22.7 SSE 7 9 1016.4 - 0.0 - Partly cloudy 10 - - - -
16/12:00pm 24.6 SSE 7 9 1016.9 - 0.0 - Cloudy 10 - - - -
16/11:30am 23.1 SSE 6 9 1017.5 - 0.0 - Partly cloudy 10 - - - -
16/11:00am 23.0 SSE 5 7 1017.8 - 0.0 - Partly cloudy 10 - - - -
16/10:30am 23.6 SSE 7 8 1018.0 - 0.0 - Partly cloudy 10 - - - -
16/10:00am 23.1 SSE 6 7 1018.0 - 0.0 - Partly cloudy 10 - - - -
16/09:54am 22.8 SE 6 7 1018.0 - 0.0 - Partly cloudy 10 - - - -
16/09:30am 23.4 SE 6 7 1018.1 - 0.0 - Partly cloudy 10 - - - -
16/09:21am 24.1 SE 6 7 1018.1 - 0.0 - Partly cloudy 10 - - - -
16/09:00am 23.2 SE 6 7 1018.0 - 0.2 - Partly cloudy 10 - - - -
16/08:30am 22.9 SE 2 5 1017.8 - 0.2 - - 10 - - - -
16/08:00am 21.6 CALM 0 0 1017.6 - 0.2 - Partly cloudy 10 - - - -
16/07:30am 20.5 CALM 0 0 1017.3 - 0.2 - Partly cloudy 10 - - - -
16/07:00am 19.9 CALM 0 0 1016.9 - 0.2 - Partly cloudy 10 - - - -
16/06:30am 19.7 CALM 0 0 1016.5 - 0.2 - - 10 - - - -
16/06:00am 19.7 CALM 0 0 1016.1 - 0.2 - Mostly clear 10 - - - -
16/05:30am 19.6 CALM 0 0 1015.7 - 0.2 - Partly cloudy 10 - - - -
16/05:00am 19.5 CALM 0 0 1015.5 - 0.2 - Partly cloudy 10 - - - -
16/04:30am 19.6 CALM 0 0 1015.2 - 0.2 - Partly cloudy 10 - - - -
16/04:00am 19.7 CALM 0 0 1015.2 - 0.2 - Partly cloudy 10 - - - -
16/03:30am 19.7 CALM 0 0 1015.1 - 0.2 - Partly cloudy 10 - - - -
16/03:00am 20.1 CALM 0 0 1015.4 - 0.2 - - 10 - - - -
16/02:30am 19.9 CALM 0 0 1015.7 - 0.2 - - 10 - - - -
16/02:00am 19.8 CALM 0 0 1015.9 - 0.2 - Partly cloudy 10 - - - -
16/01:30am 20.1 NW 3 4 1016.1 - 0.2 - Partly cloudy 10 - - - -
16/01:00am 20.2 NNW 3 4 1016.2 - 0.2 - - 10 - - - -
16/12:30am 20.1 NNW 3 4 1016.4 - 0.2 - - 10 - - - -
16/12:00am 20.3 NNW 4 5 1016.5 - 0.2 - - 10 - - - -
 
Date/Time
EST
Temp
°C
Wind Pressure Rain since
9am
mm
Weather Cloud Vis
km
Sea
Height
m
Swell
Dir  Spd
kts
Gust
kts
hPa Trend Height
m
Period
s
Dir
15/11:30pm 20.2 NW 4 5 1016.7 - 0.2 - - 10 - - - -
15/11:00pm 20.4 NNW 4 5 1016.7 - 0.2 - - 10 - - - -
15/10:30pm 21.1 NNE 3 4 1017.0 - 0.2 - - 10 - - - -
15/10:00pm 21.0 NE 4 5 1017.1 - 0.2 - - 10 - - - -
15/09:30pm 21.1 N 3 4 1017.5 - 0.2 - - 10 - - - -
15/09:00pm 21.5 N 4 6 1017.6 - 0.2 - - 10 - - - -
15/08:30pm 21.5 NNE 3 6 1017.5 - 0.2 - - 10 - - - -
15/08:00pm 21.7 NNE 4 6 1017.3 - 0.2 - - 10 - - - -
15/07:30pm 21.8 NNE 6 7 1017.0 - 0.2 - - 10 - - - -
15/07:00pm 22.1 NNE 8 11 1016.7 - 0.2 - - 10 - - - -
15/06:30pm 22.1 NE 7 9 1016.4 - 0.2 - - 10 - - - -
15/06:00pm 22.5 NNE 7 10 1016.4 - 0.2 - - 10 - - - -
15/05:30pm 23.3 NNW 6 7 1016.4 - 0.2 - - 10 - - - -
15/05:00pm 24.1 NW 6 7 1016.2 - 0.2 - - 10 - - - -
15/04:30pm 24.6 NW 8 9 1016.0 - 0.2 - Partly cloudy 10 - - - -
15/04:00pm 25.2 NNW 8 10 1015.7 - 0.2 - - 10 - - - -
15/03:30pm 23.6 ESE 12 13 1015.6 - 0.2 - - 10 - - - -
15/03:00pm 23.5 ESE 11 13 1015.7 - 0.2 - Mostly clear 10 - - - -
15/02:30pm 23.8 SE 8 11 1016.0 - 0.2 - Partly cloudy 10 - - - -
15/02:00pm 23.8 SE 7 8 1016.2 - 0.2 - Partly cloudy 10 - - - -
15/01:30pm 23.5 SE 6 8 1016.6 - 0.2 - Partly cloudy 10 - - - -
15/01:00pm 23.7 SE 7 8 1017.1 - 0.2 - Partly cloudy 10 - - - -
15/12:30pm 22.9 SSE 5 7 1017.6 - 0.2 - - 10 - - - -
15/12:00pm 23.8 SE 5 7 1018.0 - 0.2 - Mostly clear 10 - - - -
15/11:30am 23.7 SE 6 7 1018.4 - 0.2 - Partly cloudy 10 - - - -
15/11:00am 23.4 SSE 5 7 1018.8 - 0.2 - Partly cloudy 10 - - - -
15/10:30am 23.5 SSE 4 6 1019.3 - 0.0 - Partly cloudy 10 - - - -
15/10:06am 23.9 SSE 4 6 1019.7 - 0.0 - Partly cloudy 10 - - - -
15/10:00am 24.2 SSE 5 6 1019.7 - 0.0 - Partly cloudy 10 - - - -
15/09:50am 23.7 S 5 7 1019.9 - 0.0 - Partly cloudy 10 - - - -
15/09:30am 22.4 SSW 5 6 1020.0 - 0.0 - Partly cloudy 10 - - - -
15/09:00am 22.1 SE 4 6 1020.0 - 0.0 - Mostly clear 10 - - - -
15/08:30am 21.1 SW 1 4 1019.6 - 0.0 - Partly cloudy 10 - - - -
15/08:20am 20.7 CALM 0 0 1019.5 - 0.0 - Partly cloudy 10 - - - -
15/08:00am 20.9 CALM 0 0 1019.3 - 0.0 - - 10 - - - -
15/07:30am 19.9 NNW 2 3 1018.9 - 0.0 - - 10 - - - -
15/07:00am 19.5 NW 4 4 1018.6 - 0.0 - - 10 - - - -
15/06:30am 19.2 NW 3 4 1018.3 - 0.0 - - 10 - - - -
15/06:00am 19.4 NW 1 4 1017.8 - 0.0 - - 10 - - - -
15/05:30am 19.4 CALM 0 0 1017.6 - 0.0 - - 10 - - - -
15/05:00am 19.6 CALM 0 0 1017.4 - 0.0 - - 10 - - - -
15/04:30am 19.9 SSW 1 4 1016.9 - 0.0 - - 10 - - - -
15/04:00am 19.5 CALM 0 0 1016.8 - 0.0 - - 10 - - - -
15/03:30am 19.5 NNW 4 5 1016.8 - 0.0 - - 10 - - - -
15/03:00am 19.6 NW 4 5 1017.1 - 0.0 - - 10 - - - -
15/02:30am 19.7 SSE 1 4 1017.5 - 0.0 - - 10 - - - -
15/02:00am 20.0 CALM 0 0 1017.7 - 0.0 - - 10 - - - -
15/01:30am 19.9 CALM 0 0 1017.9 - 0.0 - - 10 - - - -
15/01:00am 19.8 CALM 0 0 1018.2 - 0.0 - - 10 - - - -
15/12:30am 20.0 E 2 4 1018.4 - 0.0 - - 10 - - - -
15/12:00am 20.2 SE 1 3 1018.7 - 0.0 - - 10 - - - -
 
Date/Time
EST
Temp
°C
Wind Pressure Rain since
9am
mm
Weather Cloud Vis
km
Sea
Height
m
Swell
Dir  Spd
kts
Gust
kts
hPa Trend Height
m
Period
s
Dir
14/11:30pm 20.4 E 4 6 1018.7 - 0.0 - - 10 - - - -
14/11:00pm 20.4 ESE 8 9 1018.8 - 0.0 - - 10 - - - -
14/10:30pm 20.4 SE 9 10 1019.0 - 0.0 - - 10 - - - -
14/10:00pm 20.5 SE 8 9 1019.1 - 0.0 - - 10 - - - -
14/09:30pm 20.5 SE 8 9 1019.2 - 0.0 - - 10 - - - -
14/09:00pm 20.6 SE 9 10 1019.3 - 0.0 - - 10 - - - -
14/08:30pm 20.5 SE 8 9 1019.1 - 0.0 - - 10 - - - -
14/08:00pm 20.9 ESE 9 10 1019.0 - 0.0 - - 10 - - - -

Other Formats:

Comma delimited format used in spreadsheet applications
http://www.bom.gov.au/fwo/IDQ60701/IDQ60701.94368.axf

JavaScript Object Notation format (JSON) in row-major order
http://www.bom.gov.au/fwo/IDQ60701/IDQ60701.94368.json